»·PEaware :: N5954W KIFP-KGCN

N5954W :: KIFP-KGCN

FLIGHT INFORMATION

Flight Status: Arrived
Operator: Privately registered:
United States
More flights under this callsign
Pilot: Joshua M. (19482)
Aircraft: BEECH AIRCRAFT A90-E90 KING AIR
(BE9L)
More flights by this aircraft type
Origin: KIFP Laughlin/Bullhead Intl
United States
Destination: KGCN Grand Canyon Natl Park
United States
More flights between these airports :: More routes between these airports
Route: +
File this flight plan on PilotEdge
Remarks:
Altitude:
(Current/Filed)
0ft
Speed:
(Current/Filed)
0kts
Departed: 06-Jul-18 12:31 PM
Arrived: 06-Jul-18 01:35 PM
Distance/Time
Traveled:
127nm/1:04
Distance/Time
To Go:
Arrived

Flight Plot

Page will automatically refresh every two minutes.


Map Options




Map Legend


Flown Route
Filed Route
Departure Airport
Arrival Airport
Navaid (VOR, NDB)
Fix

Horizontal Profiles

Position Reports

Time Latitude Longitude Heading Altitude Ground
Speed
06-Jul-18 12:21 35.159758 -114.556368 266 704ft 0kts
06-Jul-18 12:22 35.159578 -114.557031 240 704ft 5kts
06-Jul-18 12:23 35.161083 -114.558409 355 704ft 23kts
06-Jul-18 12:24 35.166133 -114.559015 302 704ft 13kts
06-Jul-18 12:25 35.166202 -114.559257 272 704ft 0kts
06-Jul-18 12:26 35.166202 -114.559257 272 704ft 0kts
06-Jul-18 12:29 35.166498 -114.559064 80 704ft 8kts
06-Jul-18 12:29 35.166291 -114.559223 247 704ft 0kts
06-Jul-18 12:30 35.166159 -114.559760 255 704ft 13kts
06-Jul-18 12:31 35.162440 -114.559748 181 704ft 88kts
06-Jul-18 12:32 35.143022 -114.558175 174 1301ft 138kts
06-Jul-18 12:33 35.126937 -114.546895 103 2465ft 135kts
06-Jul-18 12:34 35.132329 -114.522825 67 3541ft 137kts
06-Jul-18 12:35 35.140222 -114.499620 66 4538ft 139kts
06-Jul-18 12:36 35.148593 -114.475706 66 5504ft 141kts
06-Jul-18 12:37 35.157910 -114.449430 66 6500ft 143kts
06-Jul-18 12:38 35.167888 -114.421439 66 7489ft 146kts
06-Jul-18 12:39 35.177303 -114.395095 67 8112ft 159kts
06-Jul-18 12:40 35.186455 -114.369410 66 8599ft 173kts
06-Jul-18 12:41 35.196898 -114.340099 67 8473ft 209kts
06-Jul-18 12:42 35.207376 -114.310684 66 8592ft 213kts
06-Jul-18 12:43 35.222303 -114.268779 66 8834ft 214kts
06-Jul-18 12:44 35.243854 -114.208200 66 9194ft 214kts
06-Jul-18 12:45 35.267194 -114.142447 66 9523ft 216kts
06-Jul-18 12:46 35.291093 -114.074959 66 9527ft 224kts
06-Jul-18 12:47 35.315649 -114.005474 66 9527ft 226kts
06-Jul-18 12:48 35.334793 -113.951204 66 9527ft 227kts
06-Jul-18 12:49 35.354537 -113.895122 66 9527ft 227kts
06-Jul-18 12:50 35.375314 -113.836013 66 9527ft 227kts
06-Jul-18 12:51 35.398528 -113.769830 66 9527ft 227kts
06-Jul-18 12:52 35.422356 -113.701745 66 9527ft 227kts
06-Jul-18 12:53 35.443189 -113.642097 66 9528ft 227kts
06-Jul-18 12:54 35.457239 -113.601808 66 9527ft 227kts
06-Jul-18 12:55 35.472586 -113.557741 66 9528ft 227kts
06-Jul-18 12:56 35.487995 -113.513430 66 9528ft 227kts
06-Jul-18 12:57 35.500809 -113.476534 66 9527ft 227kts
06-Jul-18 12:58 35.514051 -113.438354 66 9529ft 227kts
06-Jul-18 12:59 35.531562 -113.387792 66 9528ft 227kts
06-Jul-18 13:01 35.548418 -113.339046 67 9527ft 227kts
06-Jul-18 13:02 35.568748 -113.280157 67 9527ft 227kts
06-Jul-18 13:03 35.587888 -113.224606 67 9526ft 227kts
06-Jul-18 13:04 35.600057 -113.189237 67 9527ft 227kts
06-Jul-18 13:05 35.609486 -113.161806 67 9527ft 227kts
06-Jul-18 13:06 35.622645 -113.123477 67 9527ft 227kts
06-Jul-18 13:07 35.638233 -113.078008 67 9527ft 227kts
06-Jul-18 13:08 35.650436 -113.042371 67 9527ft 227kts
06-Jul-18 13:09 35.658072 -113.020034 67 9494ft 229kts
06-Jul-18 13:10 35.671755 -112.979980 67 9173ft 238kts
06-Jul-18 13:11 35.692109 -112.920302 67 8709ft 243kts
06-Jul-18 13:12 35.705724 -112.880326 67 8397ft 245kts
06-Jul-18 13:13 35.718249 -112.843491 67 8109ft 245kts
06-Jul-18 13:14 35.734672 -112.795152 67 7732ft 246kts
06-Jul-18 13:15 35.751664 -112.745032 67 7352ft 247kts
06-Jul-18 13:16 35.769275 -112.693031 67 7037ft 244kts
06-Jul-18 13:17 35.785040 -112.646425 66 7029ft 236kts
06-Jul-18 13:18 35.799701 -112.602996 67 7028ft 233kts
06-Jul-18 13:19 35.812955 -112.563687 66 7030ft 232kts
06-Jul-18 13:20 35.827313 -112.521024 66 7030ft 232kts
06-Jul-18 13:21 35.838108 -112.488937 67 7031ft 231kts
06-Jul-18 13:22 35.851720 -112.448373 66 7028ft 232kts
06-Jul-18 13:23 35.866645 -112.403860 66 7030ft 232kts
06-Jul-18 13:24 35.877689 -112.370898 67 7028ft 232kts
06-Jul-18 13:25 35.891373 -112.327762 67 7028ft 231kts
06-Jul-18 13:26 35.906886 -112.280397 68 7028ft 232kts
06-Jul-18 13:27 35.918556 -112.244927 68 7027ft 231kts
06-Jul-18 13:28 35.925374 -112.225283 59 7021ft 231kts
06-Jul-18 13:29 35.929300 -112.219338 40 7011ft 230kts
06-Jul-18 13:30 35.936555 -112.212108 39 7027ft 229kts
06-Jul-18 13:31 35.952471 -112.196186 40 7064ft 221kts
06-Jul-18 13:32 35.971980 -112.175260 43 7399ft 190kts
06-Jul-18 13:33 35.981073 -112.161426 63 7730ft 127kts
06-Jul-18 13:34 35.974674 -112.134456 169 7070ft 113kts
06-Jul-18 13:35 35.958847 -112.140058 219 6607ft 72kts
06-Jul-18 13:36 35.956076 -112.140839 130 6607ft 9kts

Navigation Log

Ident Type
Flight plan parsing failed, navigation log unavailable